sensor_id;sensor_type;location;lat;lon;timestamp;temperature;humidity
45383;DHT22;42455;51.660;5.824;2023-05-31T00:01:06;15.0;80.5
45383;DHT22;42455;51.660;5.824;2023-05-31T00:06:11;14.9;81.0
45383;DHT22;42455;51.660;5.824;2023-05-31T00:11:17;14.9;81.0
45383;DHT22;42455;51.660;5.824;2023-05-31T00:16:24;14.8;81.0
45383;DHT22;42455;51.660;5.824;2023-05-31T00:21:30;14.8;81.5
45383;DHT22;42455;51.660;5.824;2023-05-31T00:26:36;14.7;81.5
45383;DHT22;42455;51.660;5.824;2023-05-31T00:31:42;14.7;81.5
45383;DHT22;42455;51.660;5.824;2023-05-31T00:36:48;14.6;82.0
45383;DHT22;42455;51.660;5.824;2023-05-31T00:41:55;14.6;82.5
45383;DHT22;42455;51.660;5.824;2023-05-31T00:47:01;14.5;82.5
45383;DHT22;42455;51.660;5.824;2023-05-31T00:52:08;14.5;82.5
45383;DHT22;42455;51.660;5.824;2023-05-31T00:57:14;14.4;83.0
45383;DHT22;42455;51.660;5.824;2023-05-31T01:02:20;14.4;83.0
45383;DHT22;42455;51.660;5.824;2023-05-31T01:07:26;14.3;83.5
45383;DHT22;42455;51.660;5.824;2023-05-31T01:13:01;14.3;83.5
45383;DHT22;42455;51.660;5.824;2023-05-31T01:17:45;14.3;83.5
45383;DHT22;42455;51.660;5.824;2023-05-31T01:23:04;14.2;84.0
45383;DHT22;42455;51.660;5.824;2023-05-31T01:27:51;14.2;84.0
45383;DHT22;42455;51.660;5.824;2023-05-31T01:32:59;14.2;84.5
45383;DHT22;42455;51.660;5.824;2023-05-31T01:38:03;14.1;84.5
45383;DHT22;42455;51.660;5.824;2023-05-31T01:43:10;14.1;85.0
45383;DHT22;42455;51.660;5.824;2023-05-31T01:48:16;14.1;85.0
45383;DHT22;42455;51.660;5.824;2023-05-31T01:53:22;14.1;85.0
45383;DHT22;42455;51.660;5.824;2023-05-31T01:58:29;14.0;85.0
45383;DHT22;42455;51.660;5.824;2023-05-31T02:03:34;14.0;85.5
45383;DHT22;42455;51.660;5.824;2023-05-31T02:08:40;13.9;85.5
45383;DHT22;42455;51.660;5.824;2023-05-31T02:13:47;13.9;86.0
45383;DHT22;42455;51.660;5.824;2023-05-31T02:18:53;13.9;86.0
45383;DHT22;42455;51.660;5.824;2023-05-31T02:23:59;13.9;86.0
45383;DHT22;42455;51.660;5.824;2023-05-31T02:29:05;13.8;86.0
45383;DHT22;42455;51.660;5.824;2023-05-31T02:34:11;13.8;86.5
45383;DHT22;42455;51.660;5.824;2023-05-31T02:39:18;13.7;86.5
45383;DHT22;42455;51.660;5.824;2023-05-31T02:44:24;13.7;87.0
45383;DHT22;42455;51.660;5.824;2023-05-31T02:49:30;13.7;87.0
45383;DHT22;42455;51.660;5.824;2023-05-31T02:54:36;13.6;87.0
45383;DHT22;42455;51.660;5.824;2023-05-31T02:59:43;13.6;87.0
45383;DHT22;42455;51.660;5.824;2023-05-31T03:04:49;13.6;87.5
45383;DHT22;42455;51.660;5.824;2023-05-31T03:09:55;13.5;87.5
45383;DHT22;42455;51.660;5.824;2023-05-31T03:15:01;13.5;87.5
45383;DHT22;42455;51.660;5.824;2023-05-31T03:20:08;13.5;87.5
45383;DHT22;42455;51.660;5.824;2023-05-31T03:25:14;13.5;88.0
45383;DHT22;42455;51.660;5.824;2023-05-31T03:30:20;13.5;88.0
45383;DHT22;42455;51.660;5.824;2023-05-31T03:35:26;13.4;88.0
45383;DHT22;42455;51.660;5.824;2023-05-31T03:40:32;13.4;88.5
45383;DHT22;42455;51.660;5.824;2023-05-31T03:45:38;13.4;88.5
45383;DHT22;42455;51.660;5.824;2023-05-31T03:50:45;13.4;88.5
45383;DHT22;42455;51.660;5.824;2023-05-31T03:55:51;13.4;88.5
45383;DHT22;42455;51.660;5.824;2023-05-31T04:00:57;13.3;88.5
45383;DHT22;42455;51.660;5.824;2023-05-31T04:06:03;13.3;89.0
45383;DHT22;42455;51.660;5.824;2023-05-31T04:11:10;13.3;89.0
45383;DHT22;42455;51.660;5.824;2023-05-31T04:16:16;13.3;89.0
45383;DHT22;42455;51.660;5.824;2023-05-31T04:21:22;13.3;89.5
45383;DHT22;42455;51.660;5.824;2023-05-31T04:26:28;13.4;89.5
45383;DHT22;42455;51.660;5.824;2023-05-31T04:31:34;13.4;89.5
45383;DHT22;42455;51.660;5.824;2023-05-31T04:36:41;13.4;89.5
45383;DHT22;42455;51.660;5.824;2023-05-31T04:41:47;13.4;89.5
45383;DHT22;42455;51.660;5.824;2023-05-31T04:46:53;13.5;89.5
45383;DHT22;42455;51.660;5.824;2023-05-31T04:51:59;13.5;90.0
45383;DHT22;42455;51.660;5.824;2023-05-31T04:57:06;13.6;90.5
45383;DHT22;42455;51.660;5.824;2023-05-31T05:02:12;13.7;90.5
45383;DHT22;42455;51.660;5.824;2023-05-31T05:07:18;13.9;90.5
45383;DHT22;42455;51.660;5.824;2023-05-31T05:12:24;14.0;90.5
45383;DHT22;42455;51.660;5.824;2023-05-31T05:17:30;14.1;90.0
45383;DHT22;42455;51.660;5.824;2023-05-31T05:22:36;14.2;90.0
45383;DHT22;42455;51.660;5.824;2023-05-31T05:27:43;14.3;90.0
45383;DHT22;42455;51.660;5.824;2023-05-31T05:32:49;14.4;90.0
45383;DHT22;42455;51.660;5.824;2023-05-31T05:37:54;14.6;90.0
45383;DHT22;42455;51.660;5.824;2023-05-31T05:43:00;14.7;90.0
45383;DHT22;42455;51.660;5.824;2023-05-31T05:48:07;14.8;90.0
45383;DHT22;42455;51.660;5.824;2023-05-31T05:53:13;14.9;90.0
45383;DHT22;42455;51.660;5.824;2023-05-31T05:58:20;15.1;89.5
45383;DHT22;42455;51.660;5.824;2023-05-31T06:03:25;15.2;89.5
45383;DHT22;42455;51.660;5.824;2023-05-31T06:08:31;15.3;89.5
45383;DHT22;42455;51.660;5.824;2023-05-31T06:13:38;15.5;89.5
45383;DHT22;42455;51.660;5.824;2023-05-31T06:18:44;15.7;89.5
45383;DHT22;42455;51.660;5.824;2023-05-31T06:23:50;15.9;89.0
45383;DHT22;42455;51.660;5.824;2023-05-31T06:34:02;16.4;88.5
45383;DHT22;42455;51.660;5.824;2023-05-31T06:39:09;16.7;88.0
45383;DHT22;42455;51.660;5.824;2023-05-31T06:44:15;17.0;87.5
45383;DHT22;42455;51.660;5.824;2023-05-31T06:49:21;17.2;87.0
45383;DHT22;42455;51.660;5.824;2023-05-31T06:54:27;17.5;86.5
45383;DHT22;42455;51.660;5.824;2023-05-31T06:59:33;17.8;86.0
45383;DHT22;42455;51.660;5.824;2023-05-31T07:04:40;18.1;85.5
45383;DHT22;42455;51.660;5.824;2023-05-31T07:09:46;18.4;85.0
45383;DHT22;42455;51.660;5.824;2023-05-31T07:14:52;18.6;84.0
45383;DHT22;42455;51.660;5.824;2023-05-31T07:19:58;18.9;83.5
45383;DHT22;42455;51.660;5.824;2023-05-31T07:25:05;19.1;83.0
45383;DHT22;42455;51.660;5.824;2023-05-31T07:30:11;19.4;82.5
45383;DHT22;42455;51.660;5.824;2023-05-31T07:35:17;19.7;82.0
45383;DHT22;42455;51.660;5.824;2023-05-31T07:40:23;19.9;81.0
45383;DHT22;42455;51.660;5.824;2023-05-31T07:45:29;20.2;80.5
45383;DHT22;42455;51.660;5.824;2023-05-31T07:50:36;20.4;80.0
45383;DHT22;42455;51.660;5.824;2023-05-31T07:55:43;20.7;79.5
45383;DHT22;42455;51.660;5.824;2023-05-31T08:00:48;20.9;79.0
45383;DHT22;42455;51.660;5.824;2023-05-31T08:05:54;21.1;78.5
45383;DHT22;42455;51.660;5.824;2023-05-31T08:11:01;21.3;77.5
45383;DHT22;42455;51.660;5.824;2023-05-31T08:16:07;21.5;77.0
45383;DHT22;42455;51.660;5.824;2023-05-31T08:21:13;21.7;77.0
45383;DHT22;42455;51.660;5.824;2023-05-31T08:26:19;21.9;76.5
45383;DHT22;42455;51.660;5.824;2023-05-31T08:31:25;22.1;75.5
45383;DHT22;42455;51.660;5.824;2023-05-31T08:36:31;22.3;75.0
45383;DHT22;42455;51.660;5.824;2023-05-31T08:41:48;22.5;74.5
45383;DHT22;42455;51.660;5.824;2023-05-31T08:46:44;22.7;74.0
45383;DHT22;42455;51.660;5.824;2023-05-31T08:56:57;23.1;73.0
45383;DHT22;42455;51.660;5.824;2023-05-31T09:02:03;23.3;72.5
45383;DHT22;42455;51.660;5.824;2023-05-31T09:07:09;23.4;72.0
45383;DHT22;42455;51.660;5.824;2023-05-31T09:12:15;23.5;71.0
45383;DHT22;42455;51.660;5.824;2023-05-31T09:17:21;23.7;70.5
45383;DHT22;42455;51.660;5.824;2023-05-31T09:22:27;23.8;70.5
45383;DHT22;42455;51.660;5.824;2023-05-31T09:27:36;23.9;69.5
45383;DHT22;42455;51.660;5.824;2023-05-31T09:32:40;24.1;69.5
45383;DHT22;42455;51.660;5.824;2023-05-31T09:37:47;24.2;69.0
45383;DHT22;42455;51.660;5.824;2023-05-31T09:42:53;24.4;69.0
45383;DHT22;42455;51.660;5.824;2023-05-31T09:47:58;24.5;68.5
45383;DHT22;42455;51.660;5.824;2023-05-31T09:53:05;24.7;68.0
45383;DHT22;42455;51.660;5.824;2023-05-31T09:58:27;24.8;66.5
45383;DHT22;42455;51.660;5.824;2023-05-31T10:03:17;24.9;66.5
45383;DHT22;42455;51.660;5.824;2023-05-31T10:08:23;25.0;66.0
45383;DHT22;42455;51.660;5.824;2023-05-31T10:13:30;25.1;66.0
45383;DHT22;42455;51.660;5.824;2023-05-31T10:18:40;25.2;65.5
45383;DHT22;42455;51.660;5.824;2023-05-31T10:23:43;25.3;65.0
45383;DHT22;42455;51.660;5.824;2023-05-31T10:28:55;25.4;64.5
45383;DHT22;42455;51.660;5.824;2023-05-31T10:34:07;25.5;64.0
45383;DHT22;42455;51.660;5.824;2023-05-31T10:39:08;25.6;63.5
45383;DHT22;42455;51.660;5.824;2023-05-31T10:44:17;25.7;63.0
45383;DHT22;42455;51.660;5.824;2023-05-31T10:49:14;25.8;63.5
45383;DHT22;42455;51.660;5.824;2023-05-31T10:54:21;25.9;62.5
45383;DHT22;42455;51.660;5.824;2023-05-31T10:59:26;26.0;62.5
45383;DHT22;42455;51.660;5.824;2023-05-31T11:04:32;26.1;62.0
45383;DHT22;42455;51.660;5.824;2023-05-31T11:09:37;0.0;0.0
45383;DHT22;42455;51.660;5.824;2023-05-31T11:14:59;26.3;61.0
45383;DHT22;42455;51.660;5.824;2023-05-31T11:19:51;26.4;59.5
45383;DHT22;42455;51.660;5.824;2023-05-31T11:24:56;26.5;59.0
45383;DHT22;42455;51.660;5.824;2023-05-31T11:30:12;26.6;58.5
45383;DHT22;42455;51.660;5.824;2023-05-31T11:35:09;26.7;58.0
45383;DHT22;42455;51.660;5.824;2023-05-31T11:40:15;0.0;0.0
45383;DHT22;42455;51.660;5.824;2023-05-31T11:45:22;26.9;56.5
45383;DHT22;42455;51.660;5.824;2023-05-31T11:50:26;27.0;56.5
45383;DHT22;42455;51.660;5.824;2023-05-31T11:55:33;27.0;55.5
45383;DHT22;42455;51.660;5.824;2023-05-31T12:00:42;27.1;56.0
45383;DHT22;42455;51.660;5.824;2023-05-31T12:05:48;27.2;55.5
45383;DHT22;42455;51.660;5.824;2023-05-31T12:10:51;27.2;55.0
45383;DHT22;42455;51.660;5.824;2023-05-31T12:15:57;27.3;55.0
45383;DHT22;42455;51.660;5.824;2023-05-31T12:21:04;27.3;55.0
45383;DHT22;42455;51.660;5.824;2023-05-31T12:26:11;27.4;55.0
45383;DHT22;42455;51.660;5.824;2023-05-31T12:31:19;27.5;55.0
45383;DHT22;42455;51.660;5.824;2023-05-31T12:36:22;27.6;54.5
45383;DHT22;42455;51.660;5.824;2023-05-31T12:41:28;27.7;54.5
45383;DHT22;42455;51.660;5.824;2023-05-31T12:46:36;27.7;54.5
45383;DHT22;42455;51.660;5.824;2023-05-31T12:56:47;27.7;53.5
45383;DHT22;42455;51.660;5.824;2023-05-31T13:01:53;27.8;54.0
45383;DHT22;42455;51.660;5.824;2023-05-31T13:07:00;27.9;54.5
45383;DHT22;42455;51.660;5.824;2023-05-31T13:12:06;27.9;54.0
45383;DHT22;42455;51.660;5.824;2023-05-31T13:17:12;28.0;53.5
45383;DHT22;42455;51.660;5.824;2023-05-31T13:22:18;28.0;53.5
45383;DHT22;42455;51.660;5.824;2023-05-31T13:27:24;28.0;54.0
45383;DHT22;42455;51.660;5.824;2023-05-31T13:32:30;28.0;53.0
45383;DHT22;42455;51.660;5.824;2023-05-31T13:37:37;28.1;53.5
45383;DHT22;42455;51.660;5.824;2023-05-31T13:42:43;28.1;53.5
45383;DHT22;42455;51.660;5.824;2023-05-31T13:47:49;28.2;53.0
45383;DHT22;42455;51.660;5.824;2023-05-31T13:52:55;28.3;53.5
45383;DHT22;42455;51.660;5.824;2023-05-31T13:58:02;28.3;53.5
45383;DHT22;42455;51.660;5.824;2023-05-31T14:03:08;28.4;53.0
45383;DHT22;42455;51.660;5.824;2023-05-31T14:08:14;28.5;53.0
45383;DHT22;42455;51.660;5.824;2023-05-31T14:13:20;28.5;53.0
45383;DHT22;42455;51.660;5.824;2023-05-31T14:18:26;28.5;53.0
45383;DHT22;42455;51.660;5.824;2023-05-31T14:23:32;28.6;52.5
45383;DHT22;42455;51.660;5.824;2023-05-31T14:28:39;28.6;52.5
45383;DHT22;42455;51.660;5.824;2023-05-31T14:33:45;28.7;53.0
45383;DHT22;42455;51.660;5.824;2023-05-31T14:38:51;28.8;53.0
45383;DHT22;42455;51.660;5.824;2023-05-31T14:43:57;28.9;53.0
45383;DHT22;42455;51.660;5.824;2023-05-31T14:49:04;29.0;52.5
45383;DHT22;42455;51.660;5.824;2023-05-31T14:54:10;29.0;52.0
45383;DHT22;42455;51.660;5.824;2023-05-31T14:59:16;29.1;52.0
45383;DHT22;42455;51.660;5.824;2023-05-31T15:04:23;29.1;52.0
45383;DHT22;42455;51.660;5.824;2023-05-31T15:09:28;29.1;52.0
45383;DHT22;42455;51.660;5.824;2023-05-31T15:14:35;29.1;51.5
45383;DHT22;42455;51.660;5.824;2023-05-31T15:19:41;29.2;51.5
45383;DHT22;42455;51.660;5.824;2023-05-31T15:24:47;29.2;51.5
45383;DHT22;42455;51.660;5.824;2023-05-31T15:29:53;29.3;51.5
45383;DHT22;42455;51.660;5.824;2023-05-31T15:35:00;29.4;51.0
45383;DHT22;42455;51.660;5.824;2023-05-31T15:40:06;29.4;50.5
45383;DHT22;42455;51.660;5.824;2023-05-31T15:45:12;29.5;50.0
45383;DHT22;42455;51.660;5.824;2023-05-31T15:50:18;29.5;50.0
45383;DHT22;42455;51.660;5.824;2023-05-31T15:55:24;29.5;50.0
45383;DHT22;42455;51.660;5.824;2023-05-31T16:00:31;29.6;50.5
45383;DHT22;42455;51.660;5.824;2023-05-31T16:05:37;29.6;50.5
45383;DHT22;42455;51.660;5.824;2023-05-31T16:10:43;29.7;50.0
45383;DHT22;42455;51.660;5.824;2023-05-31T16:15:49;29.8;49.5
45383;DHT22;42455;51.660;5.824;2023-05-31T16:20:55;29.7;49.5
45383;DHT22;42455;51.660;5.824;2023-05-31T16:26:02;29.8;49.5
45383;DHT22;42455;51.660;5.824;2023-05-31T16:31:08;29.8;49.0
45383;DHT22;42455;51.660;5.824;2023-05-31T16:36:14;29.7;49.0
45383;DHT22;42455;51.660;5.824;2023-05-31T16:41:20;29.6;49.0
45383;DHT22;42455;51.660;5.824;2023-05-31T16:46:26;29.5;49.5
45383;DHT22;42455;51.660;5.824;2023-05-31T16:51:33;29.5;49.5
45383;DHT22;42455;51.660;5.824;2023-05-31T16:56:39;29.5;49.0
45383;DHT22;42455;51.660;5.824;2023-05-31T17:01:45;29.5;49.0
45383;DHT22;42455;51.660;5.824;2023-05-31T17:06:51;29.5;49.5
45383;DHT22;42455;51.660;5.824;2023-05-31T17:11:56;29.4;49.0
45383;DHT22;42455;51.660;5.824;2023-05-31T17:17:03;29.3;49.0
45383;DHT22;42455;51.660;5.824;2023-05-31T17:22:09;29.2;49.0
45383;DHT22;42455;51.660;5.824;2023-05-31T17:27:15;29.1;49.0
45383;DHT22;42455;51.660;5.824;2023-05-31T17:32:21;29.0;49.0
45383;DHT22;42455;51.660;5.824;2023-05-31T17:37:28;29.0;49.0
45383;DHT22;42455;51.660;5.824;2023-05-31T17:42:34;28.9;49.5
45383;DHT22;42455;51.660;5.824;2023-05-31T17:47:40;28.8;49.5
45383;DHT22;42455;51.660;5.824;2023-05-31T17:52:46;28.8;49.5
45383;DHT22;42455;51.660;5.824;2023-05-31T17:57:52;28.7;50.0
45383;DHT22;42455;51.660;5.824;2023-05-31T18:02:59;28.6;50.5
45383;DHT22;42455;51.660;5.824;2023-05-31T18:08:05;28.5;51.0
45383;DHT22;42455;51.660;5.824;2023-05-31T18:13:11;28.3;51.5
45383;DHT22;42455;51.660;5.824;2023-05-31T18:18:17;28.1;52.0
45383;DHT22;42455;51.660;5.824;2023-05-31T18:23:23;27.9;52.5
45383;DHT22;42455;51.660;5.824;2023-05-31T18:28:30;27.7;53.0
45383;DHT22;42455;51.660;5.824;2023-05-31T18:33:36;27.5;54.0
45383;DHT22;42455;51.660;5.824;2023-05-31T18:38:43;27.3;54.5
45383;DHT22;42455;51.660;5.824;2023-05-31T18:43:48;27.1;54.5
45383;DHT22;42455;51.660;5.824;2023-05-31T18:48:55;26.9;55.0
45383;DHT22;42455;51.660;5.824;2023-05-31T18:54:01;26.6;55.5
45383;DHT22;42455;51.660;5.824;2023-05-31T18:59:07;26.4;56.0
45383;DHT22;42455;51.660;5.824;2023-05-31T19:04:13;26.2;56.5
45383;DHT22;42455;51.660;5.824;2023-05-31T19:09:20;26.0;56.5
45383;DHT22;42455;51.660;5.824;2023-05-31T19:14:26;25.7;57.0
45383;DHT22;42455;51.660;5.824;2023-05-31T19:19:32;25.4;57.5
45383;DHT22;42455;51.660;5.824;2023-05-31T19:24:38;25.1;58.0
45383;DHT22;42455;51.660;5.824;2023-05-31T19:29:44;24.8;58.5
45383;DHT22;42455;51.660;5.824;2023-05-31T19:34:51;24.5;59.0
45383;DHT22;42455;51.660;5.824;2023-05-31T19:39:57;24.1;60.0
45383;DHT22;42455;51.660;5.824;2023-05-31T19:45:03;23.9;60.0
45383;DHT22;42455;51.660;5.824;2023-05-31T19:50:10;23.6;61.0
45383;DHT22;42455;51.660;5.824;2023-05-31T19:55:15;23.3;61.5
45383;DHT22;42455;51.660;5.824;2023-05-31T20:00:22;23.0;62.0
45383;DHT22;42455;51.660;5.824;2023-05-31T20:05:28;22.8;62.5
45383;DHT22;42455;51.660;5.824;2023-05-31T20:10:34;22.6;63.0
45383;DHT22;42455;51.660;5.824;2023-05-31T20:15:40;22.3;63.5
45383;DHT22;42455;51.660;5.824;2023-05-31T20:20:46;22.1;63.5
45383;DHT22;42455;51.660;5.824;2023-05-31T20:25:53;21.9;64.0
45383;DHT22;42455;51.660;5.824;2023-05-31T20:30:59;21.7;64.5
45383;DHT22;42455;51.660;5.824;2023-05-31T20:36:05;21.6;65.0
45383;DHT22;42455;51.660;5.824;2023-05-31T20:41:11;21.4;65.0
45383;DHT22;42455;51.660;5.824;2023-05-31T20:46:17;21.2;65.5
45383;DHT22;42455;51.660;5.824;2023-05-31T20:51:24;21.1;66.0
45383;DHT22;42455;51.660;5.824;2023-05-31T20:56:30;20.9;66.5
45383;DHT22;42455;51.660;5.824;2023-05-31T21:01:36;20.8;67.0
45383;DHT22;42455;51.660;5.824;2023-05-31T21:06:42;20.6;67.5
45383;DHT22;42455;51.660;5.824;2023-05-31T21:11:48;20.5;67.5
45383;DHT22;42455;51.660;5.824;2023-05-31T21:16:55;20.3;68.0
45383;DHT22;42455;51.660;5.824;2023-05-31T21:22:01;20.1;68.5
45383;DHT22;42455;51.660;5.824;2023-05-31T21:27:07;19.9;69.0
45383;DHT22;42455;51.660;5.824;2023-05-31T21:32:13;19.8;69.0
45383;DHT22;42455;51.660;5.824;2023-05-31T21:37:19;19.6;70.0
45383;DHT22;42455;51.660;5.824;2023-05-31T21:42:26;19.4;70.0
45383;DHT22;42455;51.660;5.824;2023-05-31T21:47:32;19.2;70.5
45383;DHT22;42455;51.660;5.824;2023-05-31T21:52:38;19.1;70.5
45383;DHT22;42455;51.660;5.824;2023-05-31T21:57:44;18.9;71.5
45383;DHT22;42455;51.660;5.824;2023-05-31T22:07:57;18.6;72.0
45383;DHT22;42455;51.660;5.824;2023-05-31T22:13:03;18.5;72.5
45383;DHT22;42455;51.660;5.824;2023-05-31T22:18:09;18.3;73.0
45383;DHT22;42455;51.660;5.824;2023-05-31T22:23:15;18.2;73.0
45383;DHT22;42455;51.660;5.824;2023-05-31T22:28:22;18.0;73.0
45383;DHT22;42455;51.660;5.824;2023-05-31T22:33:28;17.9;73.5
45383;DHT22;42455;51.660;5.824;2023-05-31T22:38:34;17.7;74.0
45383;DHT22;42455;51.660;5.824;2023-05-31T22:43:39;17.6;74.5
45383;DHT22;42455;51.660;5.824;2023-05-31T22:48:45;17.5;74.5
45383;DHT22;42455;51.660;5.824;2023-05-31T22:53:52;17.4;75.0
45383;DHT22;42455;51.660;5.824;2023-05-31T22:58:58;17.2;75.5
45383;DHT22;42455;51.660;5.824;2023-05-31T23:04:04;17.1;75.5
45383;DHT22;42455;51.660;5.824;2023-05-31T23:09:10;17.0;76.0
45383;DHT22;42455;51.660;5.824;2023-05-31T23:14:17;16.9;76.0
45383;DHT22;42455;51.660;5.824;2023-05-31T23:19:23;16.8;76.5
45383;DHT22;42455;51.660;5.824;2023-05-31T23:24:29;16.6;77.0
45383;DHT22;42455;51.660;5.824;2023-05-31T23:29:35;16.5;77.0
45383;DHT22;42455;51.660;5.824;2023-05-31T23:34:41;16.4;77.5
45383;DHT22;42455;51.660;5.824;2023-05-31T23:39:48;16.3;77.5
45383;DHT22;42455;51.660;5.824;2023-05-31T23:44:54;16.2;78.0
45383;DHT22;42455;51.660;5.824;2023-05-31T23:50:00;16.1;78.0
45383;DHT22;42455;51.660;5.824;2023-05-31T23:55:06;15.9;78.5
